sensor_id;sensor_type;location;lat;lon;timestamp;temperature;humidity
10089;DHT22;51898;49.864;8.550;2023-04-01T00:01:58;10.20;79.20
10089;DHT22;51898;49.864;8.550;2023-04-01T00:05:00;10.30;79.20
10089;DHT22;51898;49.864;8.550;2023-04-01T00:08:03;10.20;79.30
10089;DHT22;51898;49.864;8.550;2023-04-01T00:11:04;10.20;79.60
10089;DHT22;51898;49.864;8.550;2023-04-01T00:14:07;10.20;79.30
10089;DHT22;51898;49.864;8.550;2023-04-01T00:17:09;10.20;78.70
10089;DHT22;51898;49.864;8.550;2023-04-01T00:20:11;10.20;79.00
10089;DHT22;51898;49.864;8.550;2023-04-01T00:23:13;10.20;78.60
10089;DHT22;51898;49.864;8.550;2023-04-01T00:26:15;10.20;78.30
10089;DHT22;51898;49.864;8.550;2023-04-01T00:29:20;10.20;78.70
10089;DHT22;51898;49.864;8.550;2023-04-01T00:32:22;10.10;78.80
10089;DHT22;51898;49.864;8.550;2023-04-01T00:35:23;10.10;78.50
10089;DHT22;51898;49.864;8.550;2023-04-01T00:38:25;10.20;78.50
10089;DHT22;51898;49.864;8.550;2023-04-01T00:41:27;10.10;78.40
10089;DHT22;51898;49.864;8.550;2023-04-01T00:44:32;10.10;78.30
10089;DHT22;51898;49.864;8.550;2023-04-01T00:47:34;10.10;78.40
10089;DHT22;51898;49.864;8.550;2023-04-01T00:50:37;10.10;78.60
10089;DHT22;51898;49.864;8.550;2023-04-01T00:53:43;10.10;78.30
10089;DHT22;51898;49.864;8.550;2023-04-01T00:56:49;10.10;78.30
10089;DHT22;51898;49.864;8.550;2023-04-01T00:59:54;10.10;78.50
10089;DHT22;51898;49.864;8.550;2023-04-01T01:02:56;10.10;78.60
10089;DHT22;51898;49.864;8.550;2023-04-01T01:16:44;10.10;78.70
10089;DHT22;51898;49.864;8.550;2023-04-01T01:26:53;10.00;78.60
10089;DHT22;51898;49.864;8.550;2023-04-01T01:33:27;10.00;78.70
10089;DHT22;51898;49.864;8.550;2023-04-01T01:36:34;10.00;78.90
10089;DHT22;51898;49.864;8.550;2023-04-01T01:39:37;10.00;79.10
10089;DHT22;51898;49.864;8.550;2023-04-01T01:42:43;10.00;78.80
10089;DHT22;51898;49.864;8.550;2023-04-01T01:45:50;10.00;78.90
10089;DHT22;51898;49.864;8.550;2023-04-01T01:48:55;10.00;79.10
10089;DHT22;51898;49.864;8.550;2023-04-01T01:51:57;10.00;79.10
10089;DHT22;51898;49.864;8.550;2023-04-01T01:54:59;10.00;79.20
10089;DHT22;51898;49.864;8.550;2023-04-01T01:58:16;9.90;79.00
10089;DHT22;51898;49.864;8.550;2023-04-01T02:01:28;10.00;79.40
10089;DHT22;51898;49.864;8.550;2023-04-01T02:04:31;9.90;79.40
10089;DHT22;51898;49.864;8.550;2023-04-01T02:07:35;9.90;79.40
10089;DHT22;51898;49.864;8.550;2023-04-01T02:10:42;9.90;79.40
10089;DHT22;51898;49.864;8.550;2023-04-01T02:14:06;9.90;79.50
10089;DHT22;51898;49.864;8.550;2023-04-01T02:17:15;9.90;79.60
10089;DHT22;51898;49.864;8.550;2023-04-01T02:20:21;9.80;80.10
10089;DHT22;51898;49.864;8.550;2023-04-01T02:23:23;9.80;79.90
10089;DHT22;51898;49.864;8.550;2023-04-01T02:26:25;9.80;80.20
10089;DHT22;51898;49.864;8.550;2023-04-01T02:29:27;9.80;80.60
10089;DHT22;51898;49.864;8.550;2023-04-01T02:32:31;9.80;80.80
10089;DHT22;51898;49.864;8.550;2023-04-01T02:35:35;9.80;80.70
10089;DHT22;51898;49.864;8.550;2023-04-01T02:38:38;9.70;81.20
10089;DHT22;51898;49.864;8.550;2023-04-01T02:41:42;9.70;81.70
10089;DHT22;51898;49.864;8.550;2023-04-01T02:44:44;9.70;81.80
10089;DHT22;51898;49.864;8.550;2023-04-01T02:47:46;9.70;81.70
10089;DHT22;51898;49.864;8.550;2023-04-01T02:50:48;9.60;82.10
10089;DHT22;51898;49.864;8.550;2023-04-01T02:53:50;9.70;82.30
10089;DHT22;51898;49.864;8.550;2023-04-01T02:56:52;9.60;82.20
10089;DHT22;51898;49.864;8.550;2023-04-01T02:59:54;9.70;82.10
10089;DHT22;51898;49.864;8.550;2023-04-01T03:02:56;9.70;82.10
10089;DHT22;51898;49.864;8.550;2023-04-01T03:05:58;9.60;81.80
10089;DHT22;51898;49.864;8.550;2023-04-01T03:09:01;9.70;81.70
10089;DHT22;51898;49.864;8.550;2023-04-01T03:12:04;9.60;81.50
10089;DHT22;51898;49.864;8.550;2023-04-01T03:15:06;9.70;81.30
10089;DHT22;51898;49.864;8.550;2023-04-01T03:18:12;9.70;81.30
10089;DHT22;51898;49.864;8.550;2023-04-01T03:21:18;9.70;81.20
10089;DHT22;51898;49.864;8.550;2023-04-01T03:24:20;9.70;81.20
10089;DHT22;51898;49.864;8.550;2023-04-01T03:27:22;9.70;81.40
10089;DHT22;51898;49.864;8.550;2023-04-01T03:30:24;9.70;81.40
10089;DHT22;51898;49.864;8.550;2023-04-01T03:33:26;9.70;81.50
10089;DHT22;51898;49.864;8.550;2023-04-01T03:36:28;9.70;81.60
10089;DHT22;51898;49.864;8.550;2023-04-01T03:39:30;9.70;81.50
10089;DHT22;51898;49.864;8.550;2023-04-01T03:42:32;9.70;81.50
10089;DHT22;51898;49.864;8.550;2023-04-01T03:45:34;9.70;81.50
10089;DHT22;51898;49.864;8.550;2023-04-01T03:48:36;9.70;81.70
10089;DHT22;51898;49.864;8.550;2023-04-01T03:51:39;9.70;81.50
10089;DHT22;51898;49.864;8.550;2023-04-01T03:54:41;9.70;81.50
10089;DHT22;51898;49.864;8.550;2023-04-01T03:57:43;9.70;81.70
10089;DHT22;51898;49.864;8.550;2023-04-01T04:00:45;9.70;81.70
10089;DHT22;51898;49.864;8.550;2023-04-01T04:03:46;9.70;81.60
10089;DHT22;51898;49.864;8.550;2023-04-01T04:06:50;9.70;81.80
10089;DHT22;51898;49.864;8.550;2023-04-01T04:09:52;9.80;81.50
10089;DHT22;51898;49.864;8.550;2023-04-01T04:12:54;9.70;81.10
10089;DHT22;51898;49.864;8.550;2023-04-01T04:15:55;9.80;81.20
10089;DHT22;51898;49.864;8.550;2023-04-01T04:18:57;9.80;80.80
10089;DHT22;51898;49.864;8.550;2023-04-01T04:21:59;9.80;80.90
10089;DHT22;51898;49.864;8.550;2023-04-01T04:25:02;9.80;80.70
10089;DHT22;51898;49.864;8.550;2023-04-01T04:28:04;9.80;80.70
10089;DHT22;51898;49.864;8.550;2023-04-01T04:31:06;9.80;80.80
10089;DHT22;51898;49.864;8.550;2023-04-01T04:34:09;9.80;80.30
10089;DHT22;51898;49.864;8.550;2023-04-01T04:37:10;9.80;80.40
10089;DHT22;51898;49.864;8.550;2023-04-01T04:40:12;9.80;80.40
10089;DHT22;51898;49.864;8.550;2023-04-01T04:43:15;9.90;80.20
10089;DHT22;51898;49.864;8.550;2023-04-01T04:46:17;9.90;80.10
10089;DHT22;51898;49.864;8.550;2023-04-01T04:49:19;9.90;79.80
10089;DHT22;51898;49.864;8.550;2023-04-01T04:52:21;9.90;79.80
10089;DHT22;51898;49.864;8.550;2023-04-01T04:55:22;9.90;79.70
10089;DHT22;51898;49.864;8.550;2023-04-01T04:58:24;9.90;80.10
10089;DHT22;51898;49.864;8.550;2023-04-01T05:01:25;9.90;79.80
10089;DHT22;51898;49.864;8.550;2023-04-01T05:04:27;9.90;79.90
10089;DHT22;51898;49.864;8.550;2023-04-01T05:07:29;10.00;79.50
10089;DHT22;51898;49.864;8.550;2023-04-01T05:10:31;9.90;79.70
10089;DHT22;51898;49.864;8.550;2023-04-01T05:13:32;9.90;80.00
10089;DHT22;51898;49.864;8.550;2023-04-01T05:16:34;9.90;80.10
10089;DHT22;51898;49.864;8.550;2023-04-01T05:19:36;9.90;80.40
10089;DHT22;51898;49.864;8.550;2023-04-01T05:22:37;9.90;80.60
10089;DHT22;51898;49.864;8.550;2023-04-01T05:25:39;9.90;81.20
10089;DHT22;51898;49.864;8.550;2023-04-01T05:28:40;9.90;81.10
10089;DHT22;51898;49.864;8.550;2023-04-01T05:31:42;9.90;81.30
10089;DHT22;51898;49.864;8.550;2023-04-01T05:34:44;9.80;81.50
10089;DHT22;51898;49.864;8.550;2023-04-01T05:37:45;9.80;81.90
10089;DHT22;51898;49.864;8.550;2023-04-01T05:40:47;9.80;81.70
10089;DHT22;51898;49.864;8.550;2023-04-01T05:43:49;9.80;81.90
10089;DHT22;51898;49.864;8.550;2023-04-01T05:46:51;9.80;81.80
10089;DHT22;51898;49.864;8.550;2023-04-01T05:49:52;9.80;81.60
10089;DHT22;51898;49.864;8.550;2023-04-01T05:52:54;9.80;81.10
10089;DHT22;51898;49.864;8.550;2023-04-01T05:55:56;9.80;81.00
10089;DHT22;51898;49.864;8.550;2023-04-01T05:58:57;9.80;80.80
10089;DHT22;51898;49.864;8.550;2023-04-01T06:01:59;9.80;80.70
10089;DHT22;51898;49.864;8.550;2023-04-01T06:05:17;9.90;80.80
10089;DHT22;51898;49.864;8.550;2023-04-01T06:08:19;9.90;80.70
10089;DHT22;51898;49.864;8.550;2023-04-01T06:11:35;9.90;80.40
10089;DHT22;51898;49.864;8.550;2023-04-01T06:18:39;9.90;80.40
10089;DHT22;51898;49.864;8.550;2023-04-01T06:22:08;10.00;79.90
10089;DHT22;51898;49.864;8.550;2023-04-01T06:25:21;10.00;79.70
10089;DHT22;51898;49.864;8.550;2023-04-01T06:35:20;10.10;79.90
10089;DHT22;51898;49.864;8.550;2023-04-01T06:38:31;10.10;79.60
10089;DHT22;51898;49.864;8.550;2023-04-01T06:42:14;10.20;79.70
10089;DHT22;51898;49.864;8.550;2023-04-01T06:49:02;10.20;79.10
10089;DHT22;51898;49.864;8.550;2023-04-01T06:55:40;10.20;79.50
10089;DHT22;51898;49.864;8.550;2023-04-01T06:58:53;10.20;79.50
10089;DHT22;51898;49.864;8.550;2023-04-01T07:02:22;10.20;79.90
10089;DHT22;51898;49.864;8.550;2023-04-01T07:05:30;10.10;79.90
10089;DHT22;51898;49.864;8.550;2023-04-01T07:08:36;10.20;80.00
10089;DHT22;51898;49.864;8.550;2023-04-01T07:11:40;10.20;79.60
10089;DHT22;51898;49.864;8.550;2023-04-01T07:14:42;10.20;80.20
10089;DHT22;51898;49.864;8.550;2023-04-01T07:17:46;10.30;79.90
10089;DHT22;51898;49.864;8.550;2023-04-01T07:20:51;10.30;79.60
10089;DHT22;51898;49.864;8.550;2023-04-01T07:23:54;10.40;79.80
10089;DHT22;51898;49.864;8.550;2023-04-01T07:26:58;10.50;79.90
10089;DHT22;51898;49.864;8.550;2023-04-01T07:30:01;10.60;79.50
10089;DHT22;51898;49.864;8.550;2023-04-01T07:33:16;10.60;79.40
10089;DHT22;51898;49.864;8.550;2023-04-01T07:36:33;10.60;79.70
10089;DHT22;51898;49.864;8.550;2023-04-01T07:40:02;10.70;79.70
10089;DHT22;51898;49.864;8.550;2023-04-01T07:43:33;10.80;80.00
10089;DHT22;51898;49.864;8.550;2023-04-01T07:50:26;10.90;79.00
10089;DHT22;51898;49.864;8.550;2023-04-01T07:53:38;11.00;79.30
10089;DHT22;51898;49.864;8.550;2023-04-01T07:56:57;11.10;78.80
10089;DHT22;51898;49.864;8.550;2023-04-01T08:06:59;11.30;78.30
10089;DHT22;51898;49.864;8.550;2023-04-01T08:10:13;11.30;78.60
10089;DHT22;51898;49.864;8.550;2023-04-01T08:13:40;11.30;78.10
10089;DHT22;51898;49.864;8.550;2023-04-01T08:17:12;11.30;78.10
10089;DHT22;51898;49.864;8.550;2023-04-01T08:23:32;11.20;78.90
10089;DHT22;51898;49.864;8.550;2023-04-01T08:26:39;11.10;79.40
10089;DHT22;51898;49.864;8.550;2023-04-01T08:33:34;11.00;80.70
10089;DHT22;51898;49.864;8.550;2023-04-01T08:36:38;11.00;81.40
10089;DHT22;51898;49.864;8.550;2023-04-01T08:39:56;11.00;82.20
10089;DHT22;51898;49.864;8.550;2023-04-01T08:43:09;10.90;82.50
10089;DHT22;51898;49.864;8.550;2023-04-01T08:57:18;11.00;83.70
10089;DHT22;51898;49.864;8.550;2023-04-01T09:14:27;11.10;84.00
10089;DHT22;51898;49.864;8.550;2023-04-01T09:18:00;11.00;84.80
10089;DHT22;51898;49.864;8.550;2023-04-01T09:21:30;11.00;84.90
10089;DHT22;51898;49.864;8.550;2023-04-01T09:24:52;11.10;85.50
10089;DHT22;51898;49.864;8.550;2023-04-01T09:31:39;11.10;85.90
10089;DHT22;51898;49.864;8.550;2023-04-01T09:38:17;11.10;87.20
10089;DHT22;51898;49.864;8.550;2023-04-01T09:41:57;11.00;87.10
10089;DHT22;51898;49.864;8.550;2023-04-01T09:45:27;11.00;87.40
10089;DHT22;51898;49.864;8.550;2023-04-01T09:52:24;11.00;88.70
10089;DHT22;51898;49.864;8.550;2023-04-01T09:56:05;11.00;89.10
10089;DHT22;51898;49.864;8.550;2023-04-01T09:59:26;11.00;88.70
10089;DHT22;51898;49.864;8.550;2023-04-01T10:06:21;10.90;89.90
10089;DHT22;51898;49.864;8.550;2023-04-01T10:16:32;11.00;89.90
10089;DHT22;51898;49.864;8.550;2023-04-01T10:34:19;11.50;89.30
10089;DHT22;51898;49.864;8.550;2023-04-01T10:44:42;11.60;87.20
10089;DHT22;51898;49.864;8.550;2023-04-01T11:06:37;11.70;88.90
10089;DHT22;51898;49.864;8.550;2023-04-01T11:23:26;11.80;89.00
10089;DHT22;51898;49.864;8.550;2023-04-01T11:30:02;11.80;88.90
10089;DHT22;51898;49.864;8.550;2023-04-01T11:33:49;11.80;88.70
10089;DHT22;51898;49.864;8.550;2023-04-01T11:40:59;11.80;89.10
10089;DHT22;51898;49.864;8.550;2023-04-01T11:44:10;11.90;89.80
10089;DHT22;51898;49.864;8.550;2023-04-01T11:47:53;11.90;90.20
10089;DHT22;51898;49.864;8.550;2023-04-01T11:54:40;11.80;90.30
10089;DHT22;51898;49.864;8.550;2023-04-01T11:58:25;11.70;90.10
10089;DHT22;51898;49.864;8.550;2023-04-01T12:01:59;11.70;91.00
10089;DHT22;51898;49.864;8.550;2023-04-01T12:05:31;11.70;91.60
10089;DHT22;51898;49.864;8.550;2023-04-01T12:08:51;11.80;91.30
10089;DHT22;51898;49.864;8.550;2023-04-01T12:12:34;11.90;91.20
10089;DHT22;51898;49.864;8.550;2023-04-01T12:18:51;11.90;90.80
10089;DHT22;51898;49.864;8.550;2023-04-01T12:28:45;12.20;90.30
10089;DHT22;51898;49.864;8.550;2023-04-01T12:45:15;12.90;85.60
10089;DHT22;51898;49.864;8.550;2023-04-01T12:49:03;12.90;86.20
10089;DHT22;51898;49.864;8.550;2023-04-01T12:52:10;12.80;85.20
10089;DHT22;51898;49.864;8.550;2023-04-01T12:55:35;12.70;85.00
10089;DHT22;51898;49.864;8.550;2023-04-01T13:02:11;12.30;85.30
10089;DHT22;51898;49.864;8.550;2023-04-01T13:05:36;12.30;86.80
10089;DHT22;51898;49.864;8.550;2023-04-01T13:09:03;12.30;86.10
10089;DHT22;51898;49.864;8.550;2023-04-01T13:16:16;12.10;86.00
10089;DHT22;51898;49.864;8.550;2023-04-01T13:19:21;12.00;86.30
10089;DHT22;51898;49.864;8.550;2023-04-01T13:22:58;12.00;86.20
10089;DHT22;51898;49.864;8.550;2023-04-01T13:26:07;12.00;87.50
10089;DHT22;51898;49.864;8.550;2023-04-01T13:29:21;12.10;86.50
10089;DHT22;51898;49.864;8.550;2023-04-01T13:32:41;12.20;85.70
10089;DHT22;51898;49.864;8.550;2023-04-01T13:36:16;12.20;85.60
10089;DHT22;51898;49.864;8.550;2023-04-01T13:43:07;12.40;85.90
10089;DHT22;51898;49.864;8.550;2023-04-01T13:46:33;12.60;85.50
10089;DHT22;51898;49.864;8.550;2023-04-01T13:57:07;12.80;85.20
10089;DHT22;51898;49.864;8.550;2023-04-01T14:03:38;13.00;84.30
10089;DHT22;51898;49.864;8.550;2023-04-01T14:13:37;13.00;82.70
10089;DHT22;51898;49.864;8.550;2023-04-01T14:27:37;13.00;82.10
10089;DHT22;51898;49.864;8.550;2023-04-01T14:31:14;13.00;81.60
10089;DHT22;51898;49.864;8.550;2023-04-01T14:37:38;13.00;80.70
10089;DHT22;51898;49.864;8.550;2023-04-01T14:41:06;12.90;80.60
10089;DHT22;51898;49.864;8.550;2023-04-01T14:47:43;12.60;80.20
10089;DHT22;51898;49.864;8.550;2023-04-01T14:50:51;12.60;81.30
10089;DHT22;51898;49.864;8.550;2023-04-01T14:54:08;12.60;82.60
10089;DHT22;51898;49.864;8.550;2023-04-01T15:00:26;12.60;83.20
10089;DHT22;51898;49.864;8.550;2023-04-01T15:23:50;12.50;84.60
10089;DHT22;51898;49.864;8.550;2023-04-01T15:28:01;12.60;84.60
10089;DHT22;51898;49.864;8.550;2023-04-01T15:37:16;12.70;82.60
10089;DHT22;51898;49.864;8.550;2023-04-01T15:40:32;12.70;82.80
10089;DHT22;51898;49.864;8.550;2023-04-01T15:43:46;12.70;81.10
10089;DHT22;51898;49.864;8.550;2023-04-01T15:46:50;12.70;80.80
10089;DHT22;51898;49.864;8.550;2023-04-01T15:50:11;12.70;78.50
10089;DHT22;51898;49.864;8.550;2023-04-01T15:53:37;12.60;77.60
10089;DHT22;51898;49.864;8.550;2023-04-01T15:57:06;12.50;77.60
10089;DHT22;51898;49.864;8.550;2023-04-01T16:03:50;12.70;78.00
10089;DHT22;51898;49.864;8.550;2023-04-01T16:13:46;12.60;76.30
10089;DHT22;51898;49.864;8.550;2023-04-01T16:17:12;12.50;77.70
10089;DHT22;51898;49.864;8.550;2023-04-01T16:20:22;12.40;77.40
10089;DHT22;51898;49.864;8.550;2023-04-01T16:23:39;12.30;77.70
10089;DHT22;51898;49.864;8.550;2023-04-01T16:26:58;12.20;77.90
10089;DHT22;51898;49.864;8.550;2023-04-01T16:33:47;12.50;77.10
10089;DHT22;51898;49.864;8.550;2023-04-01T16:37:28;12.50;77.40
10089;DHT22;51898;49.864;8.550;2023-04-01T16:40:36;12.40;77.00
10089;DHT22;51898;49.864;8.550;2023-04-01T16:43:44;12.30;78.00
10089;DHT22;51898;49.864;8.550;2023-04-01T16:46:54;12.10;77.20
10089;DHT22;51898;49.864;8.550;2023-04-01T16:50:12;12.00;77.90
10089;DHT22;51898;49.864;8.550;2023-04-01T16:53:19;11.90;78.60
10089;DHT22;51898;49.864;8.550;2023-04-01T16:56:38;12.20;77.40
10089;DHT22;51898;49.864;8.550;2023-04-01T16:59:53;12.20;76.80
10089;DHT22;51898;49.864;8.550;2023-04-01T17:03:12;12.20;76.90
10089;DHT22;51898;49.864;8.550;2023-04-01T17:13:42;12.10;77.20
10089;DHT22;51898;49.864;8.550;2023-04-01T17:20:56;11.90;77.40
10089;DHT22;51898;49.864;8.550;2023-04-01T17:27:41;11.80;78.30
10089;DHT22;51898;49.864;8.550;2023-04-01T17:34:15;11.60;78.60
10089;DHT22;51898;49.864;8.550;2023-04-01T17:37:38;11.60;78.90
10089;DHT22;51898;49.864;8.550;2023-04-01T17:40:56;11.60;79.20
10089;DHT22;51898;49.864;8.550;2023-04-01T17:47:41;11.60;79.00
10089;DHT22;51898;49.864;8.550;2023-04-01T17:54:30;11.40;79.10
10089;DHT22;51898;49.864;8.550;2023-04-01T17:57:42;11.40;78.90
10089;DHT22;51898;49.864;8.550;2023-04-01T18:08:12;11.30;79.60
10089;DHT22;51898;49.864;8.550;2023-04-01T18:21:27;11.20;79.60
10089;DHT22;51898;49.864;8.550;2023-04-01T18:24:42;11.10;79.50
10089;DHT22;51898;49.864;8.550;2023-04-01T18:31:19;11.00;80.20
10089;DHT22;51898;49.864;8.550;2023-04-01T18:41:12;10.90;80.40
10089;DHT22;51898;49.864;8.550;2023-04-01T18:47:44;10.80;81.30
10089;DHT22;51898;49.864;8.550;2023-04-01T18:51:00;10.80;81.30
10089;DHT22;51898;49.864;8.550;2023-04-01T18:54:23;10.80;81.90
10089;DHT22;51898;49.864;8.550;2023-04-01T18:57:45;10.80;82.50
10089;DHT22;51898;49.864;8.550;2023-04-01T19:01:03;10.70;82.80
10089;DHT22;51898;49.864;8.550;2023-04-01T19:07:44;10.60;83.30
10089;DHT22;51898;49.864;8.550;2023-04-01T19:17:29;10.50;83.30
10089;DHT22;51898;49.864;8.550;2023-04-01T19:20:37;10.50;83.30
10089;DHT22;51898;49.864;8.550;2023-04-01T19:27:35;10.40;83.50
10089;DHT22;51898;49.864;8.550;2023-04-01T19:30:58;10.40;83.60
10089;DHT22;51898;49.864;8.550;2023-04-01T19:37:59;10.30;83.90
10089;DHT22;51898;49.864;8.550;2023-04-01T19:44:30;10.30;84.10
10089;DHT22;51898;49.864;8.550;2023-04-01T19:51:22;10.30;84.00
10089;DHT22;51898;49.864;8.550;2023-04-01T19:57:47;10.20;84.50
10089;DHT22;51898;49.864;8.550;2023-04-01T20:00:54;10.20;84.50
10089;DHT22;51898;49.864;8.550;2023-04-01T20:04:08;10.20;84.50
10089;DHT22;51898;49.864;8.550;2023-04-01T20:10:17;10.20;84.40
10089;DHT22;51898;49.864;8.550;2023-04-01T20:16:56;10.30;84.20
10089;DHT22;51898;49.864;8.550;2023-04-01T20:26:14;10.20;84.10
10089;DHT22;51898;49.864;8.550;2023-04-01T20:29:41;10.20;84.30
10089;DHT22;51898;49.864;8.550;2023-04-01T20:33:20;10.20;84.40
10089;DHT22;51898;49.864;8.550;2023-04-01T20:36:31;10.20;84.50
10089;DHT22;51898;49.864;8.550;2023-04-01T20:39:47;10.20;84.70
10089;DHT22;51898;49.864;8.550;2023-04-01T20:46:48;10.20;84.60
10089;DHT22;51898;49.864;8.550;2023-04-01T20:57:09;10.10;85.00
10089;DHT22;51898;49.864;8.550;2023-04-01T21:00:34;10.10;85.20
10089;DHT22;51898;49.864;8.550;2023-04-01T21:03:57;10.00;85.30
10089;DHT22;51898;49.864;8.550;2023-04-01T21:07:45;10.00;85.40
10089;DHT22;51898;49.864;8.550;2023-04-01T21:11:01;10.00;85.60
10089;DHT22;51898;49.864;8.550;2023-04-01T21:17:56;10.00;85.90
10089;DHT22;51898;49.864;8.550;2023-04-01T21:24:53;10.00;86.00
10089;DHT22;51898;49.864;8.550;2023-04-01T21:28:02;10.00;85.90
10089;DHT22;51898;49.864;8.550;2023-04-01T21:34:49;10.00;86.20
10089;DHT22;51898;49.864;8.550;2023-04-01T21:45:13;10.00;86.30
10089;DHT22;51898;49.864;8.550;2023-04-01T21:48:44;10.10;86.30
10089;DHT22;51898;49.864;8.550;2023-04-01T21:55:21;10.00;86.50
10089;DHT22;51898;49.864;8.550;2023-04-01T21:59:08;10.10;86.40
10089;DHT22;51898;49.864;8.550;2023-04-01T22:12:10;10.00;86.80
10089;DHT22;51898;49.864;8.550;2023-04-01T22:18:46;10.00;87.20
10089;DHT22;51898;49.864;8.550;2023-04-01T22:22:04;10.00;87.40
10089;DHT22;51898;49.864;8.550;2023-04-01T22:25:15;10.00;87.40
10089;DHT22;51898;49.864;8.550;2023-04-01T22:28:26;10.00;87.50
10089;DHT22;51898;49.864;8.550;2023-04-01T22:31:40;10.00;87.40
10089;DHT22;51898;49.864;8.550;2023-04-01T22:41:56;10.00;87.30
10089;DHT22;51898;49.864;8.550;2023-04-01T22:48:31;10.00;87.10
10089;DHT22;51898;49.864;8.550;2023-04-01T22:55:03;9.90;87.40
10089;DHT22;51898;49.864;8.550;2023-04-01T22:58:08;9.90;87.30
10089;DHT22;51898;49.864;8.550;2023-04-01T23:01:21;10.00;87.20
10089;DHT22;51898;49.864;8.550;2023-04-01T23:04:31;10.00;87.40
10089;DHT22;51898;49.864;8.550;2023-04-01T23:07:38;10.00;87.30
10089;DHT22;51898;49.864;8.550;2023-04-01T23:10:54;10.00;87.20
10089;DHT22;51898;49.864;8.550;2023-04-01T23:18:10;10.00;87.30
10089;DHT22;51898;49.864;8.550;2023-04-01T23:21:22;10.00;87.40
10089;DHT22;51898;49.864;8.550;2023-04-01T23:24:38;9.90;87.50
10089;DHT22;51898;49.864;8.550;2023-04-01T23:28:15;10.00;87.80
10089;DHT22;51898;49.864;8.550;2023-04-01T23:31:34;9.90;88.30
10089;DHT22;51898;49.864;8.550;2023-04-01T23:34:36;9.90;90.10
10089;DHT22;51898;49.864;8.550;2023-04-01T23:37:38;9.80;90.80
10089;DHT22;51898;49.864;8.550;2023-04-01T23:40:40;9.80;91.90
10089;DHT22;51898;49.864;8.550;2023-04-01T23:43:43;9.70;92.50
10089;DHT22;51898;49.864;8.550;2023-04-01T23:46:47;9.70;93.10
10089;DHT22;51898;49.864;8.550;2023-04-01T23:49:57;9.60;93.90
10089;DHT22;51898;49.864;8.550;2023-04-01T23:53:12;9.60;94.10
10089;DHT22;51898;49.864;8.550;2023-04-01T23:56:17;9.50;95.00
10089;DHT22;51898;49.864;8.550;2023-04-01T23:59:24;9.50;95.10
